sensor_id;sensor_type;location;lat;lon;timestamp;pressure;altitude;pressure_sealevel;temperature;humidity
37878;BME280;23715;53.652;8.516;2022-11-09T00:03:29;100490.73;;;18.05;100.00
37878;BME280;23715;53.652;8.516;2022-11-09T00:08:29;100497.13;;;17.97;100.00
37878;BME280;23715;53.652;8.516;2022-11-09T00:13:30;100496.06;;;18.13;100.00
37878;BME280;23715;53.652;8.516;2022-11-09T00:18:31;100483.91;;;18.20;100.00
37878;BME280;23715;53.652;8.516;2022-11-09T00:23:33;100483.91;;;18.20;100.00
37878;BME280;23715;53.652;8.516;2022-11-09T00:28:34;100478.08;;;17.97;100.00
37878;BME280;23715;53.652;8.516;2022-11-09T00:33:35;100472.03;;;18.17;100.00
37878;BME280;23715;53.652;8.516;2022-11-09T00:38:37;100475.73;;;17.94;100.00
37878;BME280;23715;53.652;8.516;2022-11-09T00:43:40;100468.35;;;17.84;100.00
37878;BME280;23715;53.652;8.516;2022-11-09T00:48:41;100473.79;;;17.84;100.00
37878;BME280;23715;53.652;8.516;2022-11-09T00:53:42;100471.07;;;17.84;100.00
37878;BME280;23715;53.652;8.516;2022-11-09T00:58:42;100457.61;;;17.71;100.00
37878;BME280;23715;53.652;8.516;2022-11-09T01:03:44;100457.61;;;17.71;100.00
37878;BME280;23715;53.652;8.516;2022-11-09T01:08:46;100461.92;;;17.81;100.00
37878;BME280;23715;53.652;8.516;2022-11-09T01:13:47;100459.62;;;17.73;100.00
37878;BME280;23715;53.652;8.516;2022-11-09T01:18:47;100453.81;;;17.76;100.00
37878;BME280;23715;53.652;8.516;2022-11-09T01:23:48;100455.12;;;17.81;100.00
37878;BME280;23715;53.652;8.516;2022-11-09T01:28:48;100453.76;;;17.81;100.00
37878;BME280;23715;53.652;8.516;2022-11-09T01:33:49;100457.77;;;17.74;100.00
37878;BME280;23715;53.652;8.516;2022-11-09T01:38:50;100457.37;;;17.62;100.00
37878;BME280;23715;53.652;8.516;2022-11-09T01:44:05;100459.36;;;17.68;100.00
37878;BME280;23715;53.652;8.516;2022-11-09T01:49:13;100467.98;;;17.87;100.00
37878;BME280;23715;53.652;8.516;2022-11-09T01:54:20;100470.47;;;17.78;100.00
37878;BME280;23715;53.652;8.516;2022-11-09T01:59:20;100460.48;;;17.74;100.00
37878;BME280;23715;53.652;8.516;2022-11-09T02:04:46;100456.96;;;17.99;100.00
37878;BME280;23715;53.652;8.516;2022-11-09T02:09:39;100456.80;;;17.86;100.00
37878;BME280;23715;53.652;8.516;2022-11-09T02:14:35;100462.30;;;17.92;100.00
37878;BME280;23715;53.652;8.516;2022-11-09T02:19:36;100460.30;;;17.61;100.00
37878;BME280;23715;53.652;8.516;2022-11-09T02:24:36;100466.41;;;17.73;100.00
37878;BME280;23715;53.652;8.516;2022-11-09T02:29:39;100460.00;;;18.00;100.00
37878;BME280;23715;53.652;8.516;2022-11-09T02:34:41;100457.84;;;18.10;100.00
37878;BME280;23715;53.652;8.516;2022-11-09T02:39:41;100453.97;;;18.20;100.00
37878;BME280;23715;53.652;8.516;2022-11-09T02:44:44;100453.25;;;17.96;100.00
37878;BME280;23715;53.652;8.516;2022-11-09T02:49:45;100451.30;;;17.90;100.00
37878;BME280;23715;53.652;8.516;2022-11-09T02:54:45;100448.38;;;18.06;100.00
37878;BME280;23715;53.652;8.516;2022-11-09T02:59:46;100439.65;;;17.96;100.00
37878;BME280;23715;53.652;8.516;2022-11-09T03:04:46;100447.16;;;17.94;100.00
37878;BME280;23715;53.652;8.516;2022-11-09T03:09:48;100446.95;;;17.81;100.00
37878;BME280;23715;53.652;8.516;2022-11-09T03:14:49;100446.89;;;18.14;100.00
37878;BME280;23715;53.652;8.516;2022-11-09T03:19:49;100448.92;;;17.91;100.00
37878;BME280;23715;53.652;8.516;2022-11-09T03:24:49;100446.20;;;17.91;100.00
37878;BME280;23715;53.652;8.516;2022-11-09T03:29:50;100443.55;;;17.98;100.00
37878;BME280;23715;53.652;8.516;2022-11-09T03:34:51;100440.47;;;17.86;100.00
37878;BME280;23715;53.652;8.516;2022-11-09T03:39:52;100433.94;;;17.76;100.00
37878;BME280;23715;53.652;8.516;2022-11-09T03:44:52;100446.08;;;17.69;100.00
37878;BME280;23715;53.652;8.516;2022-11-09T03:49:53;100446.45;;;17.96;100.00
37878;BME280;23715;53.652;8.516;2022-11-09T03:54:53;100450.20;;;17.80;100.00
37878;BME280;23715;53.652;8.516;2022-11-09T03:59:53;100454.33;;;17.46;100.00
37878;BME280;23715;53.652;8.516;2022-11-09T04:04:54;100455.23;;;17.72;100.00
37878;BME280;23715;53.652;8.516;2022-11-09T04:09:54;100462.34;;;17.73;100.00
37878;BME280;23715;53.652;8.516;2022-11-09T04:14:54;100467.56;;;17.49;100.00
37878;BME280;23715;53.652;8.516;2022-11-09T04:19:54;100455.93;;;17.55;100.00
37878;BME280;23715;53.652;8.516;2022-11-09T04:24:55;100464.09;;;17.70;100.00
37878;BME280;23715;53.652;8.516;2022-11-09T04:29:55;100469.89;;;17.67;100.00
37878;BME280;23715;53.652;8.516;2022-11-09T04:34:55;100476.69;;;17.82;100.00
37878;BME280;23715;53.652;8.516;2022-11-09T04:39:55;100467.70;;;17.82;100.00
37878;BME280;23715;53.652;8.516;2022-11-09T04:44:56;100476.64;;;17.71;100.00
37878;BME280;23715;53.652;8.516;2022-11-09T04:49:56;100476.64;;;17.71;100.00
37878;BME280;23715;53.652;8.516;2022-11-09T04:54:57;100478.94;;;17.79;100.00
37878;BME280;23715;53.652;8.516;2022-11-09T04:59:57;100488.62;;;17.66;100.00
37878;BME280;23715;53.652;8.516;2022-11-09T05:04:58;100489.06;;;17.70;100.00
37878;BME280;23715;53.652;8.516;2022-11-09T05:09:58;100484.09;;;17.73;100.00
37878;BME280;23715;53.652;8.516;2022-11-09T05:14:59;100482.53;;;17.64;100.00
37878;BME280;23715;53.652;8.516;2022-11-09T05:19:59;100481.56;;;17.91;100.00
37878;BME280;23715;53.652;8.516;2022-11-09T05:24:59;100474.05;;;18.19;100.00
37878;BME280;23715;53.652;8.516;2022-11-09T05:29:59;100487.87;;;18.28;100.00
37878;BME280;23715;53.652;8.516;2022-11-09T05:34:59;100493.44;;;18.30;100.00
37878;BME280;23715;53.652;8.516;2022-11-09T05:39:59;100492.70;;;18.37;100.00
37878;BME280;23715;53.652;8.516;2022-11-09T05:45:00;100493.33;;;18.02;100.00
37878;BME280;23715;53.652;8.516;2022-11-09T05:50:00;100501.48;;;18.28;100.00
37878;BME280;23715;53.652;8.516;2022-11-09T05:55:01;100499.06;;;18.18;100.00
37878;BME280;23715;53.652;8.516;2022-11-09T06:00:02;100495.90;;;18.62;100.00
37878;BME280;23715;53.652;8.516;2022-11-09T06:05:04;100493.84;;;18.27;100.00
37878;BME280;23715;53.652;8.516;2022-11-09T06:10:06;100494.09;;;18.22;100.00
37878;BME280;23715;53.652;8.516;2022-11-09T06:15:07;100504.47;;;18.07;100.00
37878;BME280;23715;53.652;8.516;2022-11-09T06:20:08;100507.02;;;17.94;100.00
37878;BME280;23715;53.652;8.516;2022-11-09T06:25:09;100504.77;;;17.98;100.00
37878;BME280;23715;53.652;8.516;2022-11-09T06:30:10;100517.23;;;17.92;100.00
37878;BME280;23715;53.652;8.516;2022-11-09T06:35:10;100526.95;;;17.71;100.00
37878;BME280;23715;53.652;8.516;2022-11-09T06:40:12;100536.52;;;18.01;100.00
37878;BME280;23715;53.652;8.516;2022-11-09T06:45:12;100534.61;;;17.91;100.00
37878;BME280;23715;53.652;8.516;2022-11-09T06:50:13;100540.48;;;17.80;100.00
37878;BME280;23715;53.652;8.516;2022-11-09T06:55:13;100545.09;;;17.94;100.00
37878;BME280;23715;53.652;8.516;2022-11-09T07:00:14;100554.16;;;18.05;100.00
37878;BME280;23715;53.652;8.516;2022-11-09T07:05:14;100560.88;;;17.99;100.00
37878;BME280;23715;53.652;8.516;2022-11-09T07:10:15;100563.90;;;17.85;100.00
37878;BME280;23715;53.652;8.516;2022-11-09T07:15:15;100573.53;;;17.72;100.00
37878;BME280;23715;53.652;8.516;2022-11-09T07:20:16;100568.50;;;17.84;100.00
37878;BME280;23715;53.652;8.516;2022-11-09T07:25:17;100567.16;;;17.80;100.00
37878;BME280;23715;53.652;8.516;2022-11-09T07:30:17;100569.66;;;18.30;100.00
37878;BME280;23715;53.652;8.516;2022-11-09T07:35:18;100573.66;;;18.39;100.00
37878;BME280;23715;53.652;8.516;2022-11-09T07:40:19;100581.97;;;18.11;100.00
37878;BME280;23715;53.652;8.516;2022-11-09T07:45:19;100589.33;;;17.92;100.00
37878;BME280;23715;53.652;8.516;2022-11-09T07:50:19;100590.29;;;18.14;100.00
37878;BME280;23715;53.652;8.516;2022-11-09T07:55:20;100593.95;;;18.06;100.00
37878;BME280;23715;53.652;8.516;2022-11-09T08:00:20;100600.05;;;18.08;100.00
37878;BME280;23715;53.652;8.516;2022-11-09T08:05:20;100598.80;;;17.96;100.00
37878;BME280;23715;53.652;8.516;2022-11-09T08:10:21;100599.44;;;18.02;100.00
37878;BME280;23715;53.652;8.516;2022-11-09T08:15:22;100604.31;;;18.07;100.00
37878;BME280;23715;53.652;8.516;2022-11-09T08:20:21;100602.64;;;17.87;100.00
37878;BME280;23715;53.652;8.516;2022-11-09T08:25:22;100595.63;;;18.37;100.00
37878;BME280;23715;53.652;8.516;2022-11-09T08:30:23;100594.62;;;18.49;100.00
37878;BME280;23715;53.652;8.516;2022-11-09T08:35:24;100591.02;;;18.38;100.00
37878;BME280;23715;53.652;8.516;2022-11-09T08:40:25;100601.12;;;18.33;100.00
37878;BME280;23715;53.652;8.516;2022-11-09T08:45:25;100602.80;;;18.34;100.00
37878;BME280;23715;53.652;8.516;2022-11-09T08:50:27;100621.91;;;18.30;100.00
37878;BME280;23715;53.652;8.516;2022-11-09T08:55:28;100622.24;;;18.16;100.00
37878;BME280;23715;53.652;8.516;2022-11-09T09:00:30;100609.78;;;18.47;100.00
37878;BME280;23715;53.652;8.516;2022-11-09T09:05:31;100606.63;;;18.54;100.00
37878;BME280;23715;53.652;8.516;2022-11-09T09:10:33;100617.46;;;18.59;100.00
37878;BME280;23715;53.652;8.516;2022-11-09T09:15:36;100604.00;;;18.87;100.00
37878;BME280;23715;53.652;8.516;2022-11-09T09:20:36;100604.00;;;18.87;100.00
37878;BME280;23715;53.652;8.516;2022-11-09T09:25:36;100622.77;;;18.97;100.00
37878;BME280;23715;53.652;8.516;2022-11-09T09:30:37;100622.02;;;19.03;100.00
37878;BME280;23715;53.652;8.516;2022-11-09T09:35:37;100626.05;;;19.07;100.00
37878;BME280;23715;53.652;8.516;2022-11-09T09:40:52;100631.30;;;19.08;100.00
37878;BME280;23715;53.652;8.516;2022-11-09T09:45:51;100645.93;;;18.97;100.00
37878;BME280;23715;53.652;8.516;2022-11-09T09:50:55;100642.69;;;18.57;100.00
37878;BME280;23715;53.652;8.516;2022-11-09T10:01:22;100653.38;;;18.73;100.00
37878;BME280;23715;53.652;8.516;2022-11-09T10:06:42;100657.54;;;18.95;100.00
37878;BME280;23715;53.652;8.516;2022-11-09T10:12:08;100653.68;;;19.25;100.00
37878;BME280;23715;53.652;8.516;2022-11-09T10:22:40;100655.56;;;19.89;100.00
37878;BME280;23715;53.652;8.516;2022-11-09T10:27:46;100647.84;;;19.72;100.00
37878;BME280;23715;53.652;8.516;2022-11-09T10:32:44;100655.97;;;19.33;100.00
37878;BME280;23715;53.652;8.516;2022-11-09T10:37:48;100650.23;;;19.70;100.00
37878;BME280;23715;53.652;8.516;2022-11-09T10:42:59;100646.76;;;19.34;100.00
37878;BME280;23715;53.652;8.516;2022-11-09T10:48:13;100660.08;;;19.54;100.00
37878;BME280;23715;53.652;8.516;2022-11-09T10:53:32;100646.75;;;19.23;100.00
37878;BME280;23715;53.652;8.516;2022-11-09T10:58:52;100650.72;;;19.20;100.00
37878;BME280;23715;53.652;8.516;2022-11-09T11:04:23;100652.32;;;19.25;100.00
37878;BME280;23715;53.652;8.516;2022-11-09T11:09:37;100647.02;;;19.28;100.00
37878;BME280;23715;53.652;8.516;2022-11-09T11:14:56;100639.16;;;19.40;100.00
37878;BME280;23715;53.652;8.516;2022-11-09T11:20:32;100646.95;;;19.32;100.00
37878;BME280;23715;53.652;8.516;2022-11-09T11:26:05;100657.25;;;19.15;100.00
37878;BME280;23715;53.652;8.516;2022-11-09T11:31:22;100648.05;;;19.27;100.00
37878;BME280;23715;53.652;8.516;2022-11-09T12:05:00;100645.22;;;18.99;100.00
37878;BME280;23715;53.652;8.516;2022-11-09T12:16:19;100646.33;;;19.04;100.00
37878;BME280;23715;53.652;8.516;2022-11-09T12:21:42;100647.67;;;19.30;100.00
37878;BME280;23715;53.652;8.516;2022-11-09T12:38:02;100647.45;;;20.31;100.00
37878;BME280;23715;53.652;8.516;2022-11-09T12:43:38;100656.38;;;20.29;100.00
37878;BME280;23715;53.652;8.516;2022-11-09T12:48:55;100656.28;;;19.87;100.00
37878;BME280;23715;53.652;8.516;2022-11-09T12:54:14;100654.66;;;19.72;100.00
37878;BME280;23715;53.652;8.516;2022-11-09T12:59:35;100648.88;;;19.70;100.00
37878;BME280;23715;53.652;8.516;2022-11-09T13:05:45;100646.70;;;19.81;100.00
37878;BME280;23715;53.652;8.516;2022-11-09T13:10:33;100652.84;;;19.57;100.00
37878;BME280;23715;53.652;8.516;2022-11-09T13:16:08;100654.28;;;19.85;100.00
37878;BME280;23715;53.652;8.516;2022-11-09T13:32:21;100672.65;;;19.98;100.00
37878;BME280;23715;53.652;8.516;2022-11-09T13:37:44;100671.22;;;19.92;100.00
37878;BME280;23715;53.652;8.516;2022-11-09T13:48:45;100674.48;;;19.69;100.00
37878;BME280;23715;53.652;8.516;2022-11-09T13:59:46;100681.23;;;19.41;100.00
37878;BME280;23715;53.652;8.516;2022-11-09T14:05:28;100682.41;;;19.43;100.00
37878;BME280;23715;53.652;8.516;2022-11-09T14:21:46;100670.02;;;19.04;100.00
37878;BME280;23715;53.652;8.516;2022-11-09T14:32:34;100664.94;;;18.90;100.00
37878;BME280;23715;53.652;8.516;2022-11-09T14:37:53;100678.16;;;18.93;100.00
37878;BME280;23715;53.652;8.516;2022-11-09T14:43:39;100676.61;;;18.95;100.00
37878;BME280;23715;53.652;8.516;2022-11-09T14:48:54;100670.98;;;18.96;100.00
37878;BME280;23715;53.652;8.516;2022-11-09T14:54:13;100674.07;;;18.82;100.00
37878;BME280;23715;53.652;8.516;2022-11-09T14:59:35;100673.02;;;18.83;100.00
37878;BME280;23715;53.652;8.516;2022-11-09T15:05:01;100675.88;;;18.71;100.00
37878;BME280;23715;53.652;8.516;2022-11-09T15:10:20;100684.20;;;18.29;100.00
37878;BME280;23715;53.652;8.516;2022-11-09T15:15:40;100680.00;;;18.22;100.00
37878;BME280;23715;53.652;8.516;2022-11-09T15:21:35;100682.37;;;18.25;100.00
37878;BME280;23715;53.652;8.516;2022-11-09T15:26:45;100687.19;;;18.34;100.00
37878;BME280;23715;53.652;8.516;2022-11-09T15:32:13;100684.61;;;18.22;100.00
37878;BME280;23715;53.652;8.516;2022-11-09T15:43:03;100697.14;;;18.08;100.00
37878;BME280;23715;53.652;8.516;2022-11-09T15:48:21;100700.88;;;17.92;100.00
37878;BME280;23715;53.652;8.516;2022-11-09T15:53:39;100708.55;;;18.07;100.00
37878;BME280;23715;53.652;8.516;2022-11-09T15:58:58;100727.98;;;18.04;100.00
37878;BME280;23715;53.652;8.516;2022-11-09T16:04:17;100734.84;;;17.96;100.00
37878;BME280;23715;53.652;8.516;2022-11-09T16:09:39;100722.02;;;17.86;100.00
37878;BME280;23715;53.652;8.516;2022-11-09T16:14:58;100724.94;;;18.37;100.00
37878;BME280;23715;53.652;8.516;2022-11-09T16:20:18;100734.56;;;18.29;100.00
37878;BME280;23715;53.652;8.516;2022-11-09T16:25:36;100735.98;;;18.54;100.00
37878;BME280;23715;53.652;8.516;2022-11-09T16:30:54;100743.88;;;18.64;100.00
37878;BME280;23715;53.652;8.516;2022-11-09T16:36:15;100757.20;;;18.44;100.00
37878;BME280;23715;53.652;8.516;2022-11-09T16:41:39;100770.53;;;18.20;100.00
37878;BME280;23715;53.652;8.516;2022-11-09T16:46:58;100779.59;;;17.93;100.00
37878;BME280;23715;53.652;8.516;2022-11-09T16:52:18;100784.61;;;18.05;100.00
37878;BME280;23715;53.652;8.516;2022-11-09T16:57:36;100800.06;;;18.08;100.00
37878;BME280;23715;53.652;8.516;2022-11-09T17:02:54;100806.05;;;18.23;100.00
37878;BME280;23715;53.652;8.516;2022-11-09T17:08:14;100810.39;;;18.32;100.00
37878;BME280;23715;53.652;8.516;2022-11-09T17:13:34;100815.27;;;18.22;100.00
37878;BME280;23715;53.652;8.516;2022-11-09T17:18:54;100814.89;;;18.02;100.00
37878;BME280;23715;53.652;8.516;2022-11-09T17:24:13;100817.78;;;18.04;100.00
37878;BME280;23715;53.652;8.516;2022-11-09T17:29:31;100833.27;;;18.23;100.00
37878;BME280;23715;53.652;8.516;2022-11-09T17:34:49;100834.98;;;18.24;100.00
37878;BME280;23715;53.652;8.516;2022-11-09T17:40:09;100838.02;;;18.02;100.00
37878;BME280;23715;53.652;8.516;2022-11-09T17:45:27;100854.97;;;17.85;100.00
37878;BME280;23715;53.652;8.516;2022-11-09T17:50:46;100859.15;;;17.60;100.00
37878;BME280;23715;53.652;8.516;2022-11-09T17:56:05;100855.98;;;17.84;100.00
37878;BME280;23715;53.652;8.516;2022-11-09T18:01:24;100859.67;;;17.60;100.00
37878;BME280;23715;53.652;8.516;2022-11-09T18:06:43;100870.30;;;17.78;100.00
37878;BME280;23715;53.652;8.516;2022-11-09T18:12:01;100882.86;;;17.79;100.00
37878;BME280;23715;53.652;8.516;2022-11-09T18:17:20;100886.30;;;17.72;100.00
37878;BME280;23715;53.652;8.516;2022-11-09T18:22:44;100900.53;;;17.47;100.00
37878;BME280;23715;53.652;8.516;2022-11-09T18:27:58;100905.86;;;17.72;100.00
37878;BME280;23715;53.652;8.516;2022-11-09T18:33:17;100906.45;;;17.47;100.00
37878;BME280;23715;53.652;8.516;2022-11-09T18:38:36;100915.56;;;17.62;100.00
37878;BME280;23715;53.652;8.516;2022-11-09T18:43:54;100916.94;;;17.66;100.00
37878;BME280;23715;53.652;8.516;2022-11-09T18:49:14;100923.16;;;17.75;100.00
37878;BME280;23715;53.652;8.516;2022-11-09T18:54:34;100931.89;;;17.66;100.00
37878;BME280;23715;53.652;8.516;2022-11-09T18:59:53;100949.23;;;17.61;100.00
37878;BME280;23715;53.652;8.516;2022-11-09T19:05:11;100948.95;;;17.48;100.00
37878;BME280;23715;53.652;8.516;2022-11-09T19:10:29;100969.28;;;17.60;100.00
37878;BME280;23715;53.652;8.516;2022-11-09T19:15:47;100969.28;;;17.60;100.00
37878;BME280;23715;53.652;8.516;2022-11-09T19:21:16;100975.28;;;17.51;100.00
37878;BME280;23715;53.652;8.516;2022-11-09T19:26:29;100983.62;;;17.46;100.00
37878;BME280;23715;53.652;8.516;2022-11-09T19:31:48;100993.51;;;17.18;100.00
37878;BME280;23715;53.652;8.516;2022-11-09T19:37:08;101007.59;;;17.26;100.00
37878;BME280;23715;53.652;8.516;2022-11-09T19:42:26;101015.57;;;17.31;100.00
37878;BME280;23715;53.652;8.516;2022-11-09T19:47:49;101021.64;;;17.58;100.00
37878;BME280;23715;53.652;8.516;2022-11-09T19:53:07;101028.44;;;17.66;100.00
37878;BME280;23715;53.652;8.516;2022-11-09T19:58:25;101033.86;;;17.62;100.00
37878;BME280;23715;53.652;8.516;2022-11-09T20:03:52;101030.83;;;17.49;100.00
37878;BME280;23715;53.652;8.516;2022-11-09T20:09:11;101042.77;;;17.27;100.00
37878;BME280;23715;53.652;8.516;2022-11-09T20:14:29;101053.97;;;17.36;100.00
37878;BME280;23715;53.652;8.516;2022-11-09T20:19:47;101060.94;;;17.47;100.00
37878;BME280;23715;53.652;8.516;2022-11-09T20:25:05;101084.21;;;17.29;100.00
37878;BME280;23715;53.652;8.516;2022-11-09T20:30:24;101084.19;;;17.58;100.00
37878;BME280;23715;53.652;8.516;2022-11-09T20:35:42;101097.13;;;17.44;100.00
37878;BME280;23715;53.652;8.516;2022-11-09T20:41:05;101102.56;;;17.27;100.00
37878;BME280;23715;53.652;8.516;2022-11-09T20:46:24;101109.00;;;17.51;100.00
37878;BME280;23715;53.652;8.516;2022-11-09T20:51:42;101112.41;;;17.12;100.00
37878;BME280;23715;53.652;8.516;2022-11-09T20:57:01;101125.34;;;17.30;100.00
37878;BME280;23715;53.652;8.516;2022-11-09T21:02:19;101132.97;;;17.35;100.00
37878;BME280;23715;53.652;8.516;2022-11-09T21:07:38;101141.31;;;17.46;100.00
37878;BME280;23715;53.652;8.516;2022-11-09T21:12:56;101151.84;;;17.57;100.00
37878;BME280;23715;53.652;8.516;2022-11-09T21:18:14;101163.20;;;17.11;100.00
37878;BME280;23715;53.652;8.516;2022-11-09T21:23:33;101163.75;;;17.40;100.00
37878;BME280;23715;53.652;8.516;2022-11-09T21:29:12;101173.26;;;17.48;100.00
37878;BME280;23715;53.652;8.516;2022-11-09T21:34:49;101177.34;;;17.68;100.00
37878;BME280;23715;53.652;8.516;2022-11-09T21:40:09;101190.92;;;17.52;100.00
37878;BME280;23715;53.652;8.516;2022-11-09T21:45:27;101193.30;;;17.67;100.00
37878;BME280;23715;53.652;8.516;2022-11-09T21:50:45;101194.84;;;17.58;100.00
37878;BME280;23715;53.652;8.516;2022-11-09T21:56:05;101201.31;;;17.65;100.00
37878;BME280;23715;53.652;8.516;2022-11-09T22:01:23;101205.69;;;17.29;100.00
37878;BME280;23715;53.652;8.516;2022-11-09T22:06:42;101210.91;;;17.06;100.00
37878;BME280;23715;53.652;8.516;2022-11-09T22:12:00;101221.84;;;17.30;100.00
37878;BME280;23715;53.652;8.516;2022-11-09T22:17:37;101220.44;;;17.18;100.00
37878;BME280;23715;53.652;8.516;2022-11-09T22:22:55;101225.33;;;17.06;100.00
37878;BME280;23715;53.652;8.516;2022-11-09T22:28:14;101240.74;;;16.97;100.00
37878;BME280;23715;53.652;8.516;2022-11-09T22:33:32;101249.77;;;16.68;100.00
37878;BME280;23715;53.652;8.516;2022-11-09T22:38:51;101247.95;;;16.81;100.00
37878;BME280;23715;53.652;8.516;2022-11-09T22:44:10;101261.11;;;16.93;100.00
37878;BME280;23715;53.652;8.516;2022-11-09T22:49:29;101278.90;;;16.84;100.00
37878;BME280;23715;53.652;8.516;2022-11-09T22:54:47;101280.33;;;16.96;100.00
37878;BME280;23715;53.652;8.516;2022-11-09T23:00:07;101281.04;;;17.06;100.00
37878;BME280;23715;53.652;8.516;2022-11-09T23:05:26;101296.05;;;16.88;100.00
37878;BME280;23715;53.652;8.516;2022-11-09T23:10:52;101301.56;;;16.74;100.00
37878;BME280;23715;53.652;8.516;2022-11-09T23:16:06;101308.16;;;16.68;100.00
37878;BME280;23715;53.652;8.516;2022-11-09T23:21:33;101304.10;;;16.72;100.00
37878;BME280;23715;53.652;8.516;2022-11-09T23:26:49;101304.10;;;16.72;100.00
37878;BME280;23715;53.652;8.516;2022-11-09T23:32:07;101321.20;;;16.64;100.00
37878;BME280;23715;53.652;8.516;2022-11-09T23:37:25;101325.43;;;16.63;100.00
37878;BME280;23715;53.652;8.516;2022-11-09T23:42:44;101332.13;;;16.76;100.00
37878;BME280;23715;53.652;8.516;2022-11-09T23:48:03;101337.63;;;16.58;100.00
37878;BME280;23715;53.652;8.516;2022-11-09T23:53:21;101349.73;;;16.68;100.00
37878;BME280;23715;53.652;8.516;2022-11-09T23:58:40;101365.50;;;16.20;100.00
